Time;durP1;ratioP1;P1;durP2;ratioP2;P2;SDS_P1;SDS_P2;PMS_P1;PMS_P2;Temp;Humidity;BMP_temperature;BMP_pressure;BME280_temperature;BME280_humidity;BME280_pressure;Samples;Min_cycle;Max_cycle;Signal;HPM_P1;HPM_P2
2022/11/03 00:01:04;;;;;;;84.05;49.78;;;333.60;2329.60;;;;;;4992527;28;20034;-84
2022/11/03 00:03:29;;;;;;;82.68;47.10;;;333.60;2329.60;;;;;;4994859;28;20034;-84
2022/11/03 00:06:04;;;;;;;80.75;45.10;;;333.60;2329.60;;;;;;4994751;28;20521;-84
2022/11/03 00:08:32;;;;;;;84.80;47.55;;;333.60;2329.60;;;;;;4994550;28;20022;-80
2022/11/03 00:11:02;;;;;;;83.18;47.17;;;333.40;2329.60;;;;;;4994330;28;20090;-81
2022/11/03 00:13:28;;;;;;;87.03;46.28;;;333.40;2329.60;;;;;;4993959;28;20030;-81
2022/11/03 00:15:54;;;;;;;87.45;46.22;;;333.50;2329.60;;;;;;4993665;28;20145;-83
2022/11/03 00:18:19;;;;;;;89.70;48.40;;;333.50;2329.60;;;;;;4993843;28;20023;-81
2022/11/03 00:20:58;;;;;;;86.80;47.40;;;333.60;2329.60;;;;;;4993888;28;20109;-81
2022/11/03 00:23:28;;;;;;;86.47;46.70;;;333.60;2329.60;;;;;;4995080;28;20023;-82
2022/11/03 00:25:54;;;;;;;81.38;45.90;;;333.60;2329.60;;;;;;4993822;28;20534;-80
2022/11/03 00:28:20;;;;;;;90.38;48.90;;;333.60;2329.60;;;;;;4995411;28;20034;-81
2022/11/03 00:30:46;;;;;;;89.97;47.35;;;333.50;2329.60;;;;;;4993579;28;20511;-81
2022/11/03 00:33:12;;;;;;;92.90;48.92;;;333.50;2329.60;;;;;;4993557;28;20034;-81
2022/11/03 00:35:37;;;;;;;91.80;49.13;;;333.40;2329.60;;;;;;4993521;28;20066;-81
2022/11/03 00:38:03;;;;;;;91.22;49.95;;;333.40;2329.60;;;;;;4992955;28;20137;-82
2022/11/03 00:40:29;;;;;;;84.28;48.83;;;333.40;2329.60;;;;;;4993616;28;20364;-81
2022/11/03 00:42:54;;;;;;;103.07;53.15;;;333.40;2329.60;;;;;;4993685;28;20053;-82
2022/11/03 00:45:20;;;;;;;91.30;51.53;;;333.10;2329.60;;;;;;4987873;28;20036;-81
2022/11/03 00:50:32;;;;;;;91.90;49.33;;;333.40;2329.60;;;;;;4993346;28;20045;-82
2022/11/03 00:52:58;;;;;;;93.75;50.28;;;333.40;2329.60;;;;;;4993435;28;20026;-82
2022/11/03 00:55:24;;;;;;;84.88;46.17;;;333.40;2329.60;;;;;;4993266;28;20468;-82
2022/11/03 00:57:52;;;;;;;92.93;48.25;;;333.40;2329.60;;;;;;4992480;28;20030;-81
2022/11/03 01:00:18;;;;;;;88.97;48.80;;;333.30;2329.60;;;;;;4993269;28;20030;-81
2022/11/03 01:02:43;;;;;;;91.35;48.65;;;333.40;2329.60;;;;;;4994793;28;20546;-81
2022/11/03 01:07:53;;;;;;;95.32;52.28;;;333.40;2329.60;;;;;;4994594;28;20100;-81
2022/11/03 01:10:19;;;;;;;93.35;48.78;;;333.20;2329.60;;;;;;4993020;28;20030;-80
2022/11/03 01:12:45;;;;;;;97.88;52.67;;;333.20;2329.60;;;;;;4992976;28;20035;-81
2022/11/03 01:15:11;;;;;;;102.68;53.38;;;332.80;2329.60;;;;;;4993127;28;20041;-81
2022/11/03 01:17:38;;;;;;;102.55;52.33;;;332.90;2329.60;;;;;;4993350;28;20387;-81
2022/11/03 01:20:04;;;;;;;103.18;50.97;;;332.80;2329.60;;;;;;5025984;28;20027;-82
2022/11/03 01:22:30;;;;;;;113.55;52.58;;;308.10;2304.00;;;;;;4993108;28;20030;-82
2022/11/03 01:24:56;;;;;;;106.50;53.42;;;308.10;2304.00;;;;;;4993195;28;20029;-81
2022/11/03 01:27:22;;;;;;;97.18;51.72;;;308.10;2304.00;;;;;;4994211;28;20050;-81
2022/11/03 01:29:48;;;;;;;107.47;52.42;;;332.90;2329.60;;;;;;4993042;28;20069;-81
2022/11/03 01:32:14;;;;;;;109.57;52.42;;;333.00;2329.60;;;;;;4992992;28;20058;-80
2022/11/03 01:34:39;;;;;;;101.20;50.88;;;333.00;2329.60;;;;;;4993999;28;20434;-81
2022/11/03 01:37:06;;;;;;;92.80;49.88;;;333.00;2329.60;;;;;;4993984;28;20057;-81
2022/11/03 01:39:31;;;;;;;101.22;50.83;;;333.20;2329.60;;;;;;5025382;28;20030;-81
2022/11/03 01:41:57;;;;;;;99.82;50.33;;;333.20;2329.60;;;;;;4992907;28;20041;-83
2022/11/03 01:44:35;;;;;;;108.38;51.72;;;333.10;2329.60;;;;;;4992589;28;20076;-81
2022/11/03 01:47:24;;;;;;;101.47;49.25;;;333.10;2329.60;;;;;;4992936;28;20026;-81
2022/11/03 01:50:01;;;;;;;106.50;48.63;;;333.20;2329.60;;;;;;4985808;28;20038;-81
2022/11/03 01:52:35;;;;;;;110.97;52.28;;;333.20;2329.60;;;;;;4992731;28;20094;-81
2022/11/03 01:55:11;;;;;;;96.57;49.08;;;333.20;2329.60;;;;;;4992683;28;20031;-82
2022/11/03 01:57:44;;;;;;;101.55;50.63;;;333.20;2329.60;;;;;;4992814;28;20069;-81
2022/11/03 02:00:10;;;;;;;;;;;333.20;2329.60;;;;;;4993259;28;20026;-81
2022/11/03 02:02:36;;;;;;;100.30;47.92;;;333.20;2329.60;;;;;;5005164;28;19963;-82
2022/11/03 02:05:03;;;;;;;101.80;49.05;;;333.20;2329.60;;;;;;5013550;28;20029;-82
2022/11/03 02:07:34;;;;;;;112.75;53.33;;;333.20;2329.60;;;;;;5013477;28;20025;-81
2022/11/03 02:10:00;;;;;;;118.43;53.17;;;333.20;2329.60;;;;;;5015980;28;20072;-82
2022/11/03 02:12:26;;;;;;;116.05;52.83;;;333.10;2329.60;;;;;;5015909;28;20061;-83
2022/11/03 02:15:09;;;;;;;110.88;54.17;;;333.10;2329.60;;;;;;5015495;28;20037;-83
2022/11/03 02:17:36;;;;;;;;;;;333.10;2329.60;;;;;;5016418;28;20026;-81
2022/11/03 02:20:23;;;;;;;108.57;50.95;;;333.10;2329.60;;;;;;5015827;28;19913;-80
2022/11/03 02:23:11;;;;;;;105.43;52.55;;;333.10;2329.60;;;;;;5015155;28;20033;-83
2022/11/03 02:25:52;;;;;;;101.13;50.53;;;333.10;2329.60;;;;;;5015747;28;20030;-82
2022/11/03 02:28:24;;;;;;;105.93;51.13;;;333.10;2329.60;;;;;;5015576;28;20052;-82
2022/11/03 02:30:58;;;;;;;83.47;45.88;;;332.90;2329.60;;;;;;5015381;28;20025;-82
2022/11/03 02:33:30;;;;;;;93.30;48.85;;;308.00;2304.00;;;;;;5017024;28;20034;-82
2022/11/03 02:36:04;;;;;;;95.57;49.58;;;307.90;2304.00;;;;;;5010337;28;20118;-82
2022/11/03 02:38:32;;;;;;;86.03;47.00;;;308.00;2304.00;;;;;;4995383;28;20061;-81
2022/11/03 02:41:01;;;;;;;91.93;49.13;;;308.00;2304.00;;;;;;4995065;28;20038;-81
2022/11/03 02:43:28;;;;;;;89.07;45.10;;;308.10;2304.00;;;;;;4995377;28;20034;-80
2022/11/03 02:45:55;;;;;;;77.43;42.80;;;307.90;2304.00;;;;;;4982330;28;20361;-81
2022/11/03 02:48:21;;;;;;;79.20;43.28;;;307.70;2304.00;;;;;;4976269;28;20031;-83
2022/11/03 02:50:48;;;;;;;81.28;43.47;;;307.60;2304.00;;;;;;4976536;28;20019;-82
2022/11/03 02:53:14;;;;;;;76.25;43.67;;;307.60;2304.00;;;;;;4976038;28;20041;-81
2022/11/03 02:55:48;;;;;;;95.47;48.67;;;307.60;2304.00;;;;;;4977061;28;20097;-82
2022/11/03 02:58:37;;;;;;;104.35;49.65;;;307.50;2304.00;;;;;;4976449;28;20033;-82
2022/11/03 03:01:13;;;;;;;102.80;49.50;;;307.70;2304.00;;;;;;4976304;28;20118;-82
2022/11/03 03:03:48;;;;;;;100.30;48.88;;;307.50;2304.00;;;;;;4977050;28;20030;-85
2022/11/03 03:06:43;;;;;;;99.40;47.38;;;307.70;2304.00;;;;;;4976024;28;20034;-82
2022/11/03 03:09:14;;;;;;;96.32;48.72;;;307.60;2304.00;;;;;;4990277;28;20045;-81
2022/11/03 03:11:42;;;;;;;96.03;47.95;;;307.70;2304.00;;;;;;4975487;28;20042;-82
2022/11/03 03:14:10;;;;;;;94.88;48.13;;;307.80;2304.00;;;;;;4976992;28;20147;-82
2022/11/03 03:16:50;;;;;;;94.50;48.63;;;308.00;2304.00;;;;;;4975786;28;20030;-82
2022/11/03 03:19:54;;;;;;;89.85;46.65;;;308.00;2304.00;;;;;;4974723;28;20033;-82
2022/11/03 03:22:44;;;;;;;84.72;43.05;;;308.00;2304.00;;;;;;4975631;28;20042;-83
2022/11/03 03:25:15;;;;;;;100.38;48.38;;;308.10;2304.00;;;;;;4976366;28;20034;-82
2022/11/03 03:27:47;;;;;;;104.13;50.55;;;308.00;2304.00;;;;;;4975515;28;20027;-82
2022/11/03 03:30:14;;;;;;;97.00;47.47;;;308.10;2304.00;;;;;;4975537;28;20027;-82
2022/11/03 03:32:47;;;;;;;98.53;50.15;;;308.10;2304.00;;;;;;4975258;28;20035;-82
2022/11/03 03:35:22;;;;;;;104.78;52.33;;;308.10;2304.00;;;;;;4975311;28;20116;-82
2022/11/03 03:37:52;;;;;;;97.45;51.55;;;308.10;2304.00;;;;;;4975142;28;20138;-82
2022/11/03 03:40:27;;;;;;;107.50;50.38;;;308.10;2304.00;;;;;;4974976;28;20022;-83
2022/11/03 03:42:53;;;;;;;108.28;50.08;;;307.90;2304.00;;;;;;4974949;28;20034;-84
2022/11/03 03:45:19;;;;;;;109.80;51.00;;;307.60;2304.00;;;;;;4974932;28;20035;-83
2022/11/03 03:47:46;;;;;;;117.70;55.35;;;307.80;2304.00;;;;;;4975939;28;20031;-83
2022/11/03 03:50:12;;;;;;;115.97;51.20;;;307.80;2304.00;;;;;;4974413;28;20030;-82
2022/11/03 03:52:38;;;;;;;111.63;52.75;;;307.60;2304.00;;;;;;4974805;28;20117;-83
2022/11/03 03:55:11;;;;;;;106.20;52.83;;;307.50;1920.00;;;;;;4976127;28;20035;-83
2022/11/03 03:57:37;;;;;;;93.13;48.42;;;307.80;2304.00;;;;;;4975067;28;20062;-82
2022/11/03 04:00:05;;;;;;;108.97;51.90;;;307.90;2304.00;;;;;;4974995;28;20062;-82
2022/11/03 04:02:30;;;;;;;98.85;48.97;;;308.00;2304.00;;;;;;4976046;28;20026;-84
2022/11/03 04:04:57;;;;;;;86.50;47.22;;;308.00;2304.00;;;;;;4975042;28;20061;-83
2022/11/03 04:10:07;;;;;;;99.90;48.85;;;308.00;2304.00;;;;;;4976035;28;20042;-82
2022/11/03 04:23:29;;;;;;;116.05;51.50;;;308.00;2304.00;;;;;;4975842;28;20037;-82
2022/11/03 04:25:56;;;;;;;119.35;54.22;;;308.10;2304.00;;;;;;4975521;28;20031;-83
2022/11/03 04:28:23;;;;;;;123.22;55.20;;;308.10;2304.00;;;;;;4975518;28;20468;-83
2022/11/03 04:30:48;;;;;;;124.10;56.53;;;308.00;2304.00;;;;;;4974396;28;20027;-82
2022/11/03 04:33:17;;;;;;;131.30;55.97;;;307.90;2304.00;;;;;;4974330;28;20443;-83
2022/11/03 04:35:43;;;;;;;117.38;54.72;;;307.90;2304.00;;;;;;4973997;28;20038;-83
2022/11/03 04:38:15;;;;;;;130.77;53.42;;;308.00;2304.00;;;;;;4974025;28;20050;-83
2022/11/03 04:40:44;;;;;;;121.22;56.65;;;307.90;2304.00;;;;;;4973592;28;20027;-83
2022/11/03 04:43:13;;;;;;;125.63;56.88;;;307.90;2304.00;;;;;;4974013;28;20038;-83
2022/11/03 04:45:42;;;;;;;123.30;55.20;;;307.80;2304.00;;;;;;4974436;28;20035;-83
2022/11/03 04:48:13;;;;;;;125.38;54.42;;;307.80;2304.00;;;;;;4973982;28;20114;-84
2022/11/03 04:50:40;;;;;;;130.15;55.33;;;307.70;2304.00;;;;;;4973931;28;20558;-82
2022/11/03 04:53:14;;;;;;;140.35;60.40;;;307.60;2304.00;;;;;;4974029;28;20078;-82
2022/11/03 04:55:41;;;;;;;138.27;56.65;;;307.70;2304.00;;;;;;4973850;28;20034;-82
2022/11/03 04:58:21;;;;;;;122.30;55.15;;;307.60;2304.00;;;;;;4973927;28;20030;-83
2022/11/03 05:00:52;;;;;;;128.25;52.28;;;307.60;2304.00;;;;;;4975281;28;20469;-83
2022/11/03 05:03:33;;;;;;;127.57;54.20;;;307.70;2304.00;;;;;;4973904;28;20094;-83
2022/11/03 05:06:08;;;;;;;128.32;53.47;;;307.70;2304.00;;;;;;4974097;28;20031;-82
2022/11/03 05:08:34;;;;;;;135.30;54.45;;;307.70;2304.00;;;;;;4975040;28;20027;-82
2022/11/03 05:11:03;;;;;;;130.80;54.47;;;307.60;2304.00;;;;;;4974700;28;20109;-82
2022/11/03 05:13:29;;;;;;;121.68;54.17;;;307.50;2304.00;;;;;;4973934;28;20484;-82
2022/11/03 05:16:01;;;;;;;131.20;52.92;;;307.60;2304.00;;;;;;4973740;28;20082;-83
2022/11/03 05:18:35;;;;;;;124.85;52.72;;;307.60;2304.00;;;;;;4973776;28;20065;-83
2022/11/03 05:21:14;;;;;;;141.32;55.70;;;307.60;2304.00;;;;;;4975112;28;20034;-83
2022/11/03 05:23:49;;;;;;;124.28;53.92;;;307.40;2304.00;;;;;;4973877;28;20054;-83
2022/11/03 05:26:23;;;;;;;122.93;54.20;;;307.50;2304.00;;;;;;4974813;28;20079;-83
2022/11/03 05:29:14;;;;;;;134.20;56.22;;;307.60;2304.00;;;;;;4973880;28;20027;-83
2022/11/03 05:31:42;;;;;;;134.18;54.22;;;307.60;2304.00;;;;;;4973687;28;20085;-86
2022/11/03 05:34:30;;;;;;;127.70;52.55;;;307.40;2304.00;;;;;;4973802;28;20472;-83
2022/11/03 05:37:12;;;;;;;127.68;54.63;;;307.50;2304.00;;;;;;4973452;28;20055;-83
2022/11/03 05:39:45;;;;;;;129.95;51.97;;;307.50;2304.00;;;;;;4973058;28;20093;-83
2022/11/03 05:42:30;;;;;;;131.05;54.67;;;307.50;2304.00;;;;;;4974478;28;20030;-82
2022/11/03 05:44:56;;;;;;;133.95;55.15;;;307.30;2304.00;;;;;;4977395;28;20109;-83
2022/11/03 05:47:44;;;;;;;133.27;54.45;;;307.20;2304.00;;;;;;4977704;28;20115;-83
2022/11/03 05:50:24;;;;;;;128.48;52.65;;;307.40;2304.00;;;;;;4961943;28;20035;-82
2022/11/03 05:52:58;;;;;;;118.57;49.38;;;307.50;2304.00;;;;;;4977168;28;20106;-85
2022/11/03 05:55:30;;;;;;;132.27;53.53;;;307.50;2304.00;;;;;;4977649;28;20070;-84
2022/11/03 05:57:58;;;;;;;;;;;307.50;2304.00;;;;;;4978649;28;20035;-85
2022/11/03 06:00:26;;;;;;;126.57;50.65;;;307.50;2304.00;;;;;;4977443;28;19941;-84
2022/11/03 06:02:52;;;;;;;112.07;51.00;;;307.40;2304.00;;;;;;4977530;28;20421;-84
2022/11/03 06:05:20;;;;;;;97.32;44.72;;;307.50;2304.00;;;;;;4977370;28;20463;-84
2022/11/03 06:07:48;;;;;;;94.03;45.88;;;307.50;2304.00;;;;;;4982180;28;20123;-84
2022/11/03 06:10:24;;;;;;;86.32;43.97;;;307.40;2304.00;;;;;;4983820;28;20027;-84
2022/11/03 06:12:59;;;;;;;85.45;44.80;;;307.50;2304.00;;;;;;4979690;28;20372;-85
2022/11/03 06:15:30;;;;;;;95.18;45.33;;;307.40;2304.00;;;;;;4976938;28;20027;-84
2022/11/03 06:17:56;;;;;;;94.78;45.50;;;307.50;2304.00;;;;;;4977205;28;20027;-85
2022/11/03 06:20:22;;;;;;;85.65;44.33;;;307.60;2304.00;;;;;;4976893;28;20054;-85
2022/11/03 06:22:51;;;;;;;96.32;46.88;;;307.60;2304.00;;;;;;4977152;28;20408;-84
2022/11/03 06:25:20;;;;;;;93.40;47.30;;;307.50;2304.00;;;;;;4977007;28;20030;-86
2022/11/03 06:27:45;;;;;;;83.32;42.72;;;307.50;2304.00;;;;;;4976556;28;20033;-85
2022/11/03 06:30:24;;;;;;;89.35;44.75;;;307.60;2304.00;;;;;;4978339;28;20034;-84
2022/11/03 06:32:51;;;;;;;89.05;42.90;;;307.70;2304.00;;;;;;4976816;28;20038;-84
2022/11/03 06:35:17;;;;;;;83.15;42.60;;;307.60;2304.00;;;;;;4976595;28;20469;-85
2022/11/03 06:37:44;;;;;;;80.07;43.85;;;307.60;2304.00;;;;;;4976399;28;20129;-85
2022/11/03 06:40:09;;;;;;;88.10;44.97;;;307.60;2304.00;;;;;;4976708;28;20038;-84
2022/11/03 06:42:37;;;;;;;97.85;47.60;;;307.60;2304.00;;;;;;4976267;28;20031;-84
2022/11/03 06:45:20;;;;;;;98.25;47.53;;;307.60;2304.00;;;;;;4976515;28;20625;-86
2022/11/03 06:47:46;;;;;;;98.32;48.03;;;307.70;2304.00;;;;;;4976449;28;20093;-85
2022/11/03 06:50:31;;;;;;;81.90;41.88;;;307.70;2304.00;;;;;;4976560;28;20034;-85
2022/11/03 06:53:02;;;;;;;93.97;43.38;;;307.60;2304.00;;;;;;4977455;28;20117;-85
2022/11/03 06:55:30;;;;;;;92.30;43.10;;;307.50;2304.00;;;;;;4975532;28;20463;-84
2022/11/03 06:58:14;;;;;;;98.90;47.05;;;307.60;2304.00;;;;;;4976263;28;20405;-83
2022/11/03 07:00:41;;;;;;;100.82;47.95;;;307.60;2304.00;;;;;;4976401;28;20041;-84
2022/11/03 07:03:26;;;;;;;89.70;47.08;;;307.70;2304.00;;;;;;4975991;28;20031;-84
2022/11/03 07:06:04;;;;;;;95.78;45.33;;;307.60;2304.00;;;;;;4976235;28;20023;-84
2022/11/03 07:08:36;;;;;;;91.85;44.13;;;307.70;2304.00;;;;;;4975976;28;20110;-85
2022/11/03 07:11:19;;;;;;;96.60;46.17;;;307.70;2304.00;;;;;;4976152;28;20026;-85
2022/11/03 07:14:10;;;;;;;98.28;46.33;;;307.70;2304.00;;;;;;4976199;28;20042;-85
2022/11/03 07:16:59;;;;;;;100.38;48.25;;;307.70;2304.00;;;;;;4975452;28;20059;-85
2022/11/03 07:19:41;;;;;;;97.70;46.08;;;307.60;2304.00;;;;;;4977115;28;20023;-86
2022/11/03 07:22:15;;;;;;;96.05;46.03;;;307.70;2304.00;;;;;;4976138;28;20053;-86
2022/11/03 07:24:44;;;;;;;89.90;43.38;;;307.80;2304.00;;;;;;4976027;28;20023;-86
2022/11/03 07:27:22;;;;;;;94.30;47.28;;;307.80;2304.00;;;;;;4976068;28;20380;-84
2022/11/03 07:29:50;;;;;;;97.18;49.03;;;307.80;2304.00;;;;;;4975589;28;20496;-85
2022/11/03 07:32:21;;;;;;;98.25;48.40;;;307.70;2304.00;;;;;;4975515;28;20026;-85
2022/11/03 07:34:51;;;;;;;105.03;49.75;;;307.70;2304.00;;;;;;4975556;28;20026;-85
2022/11/03 07:37:23;;;;;;;101.75;49.92;;;307.80;2304.00;;;;;;4975341;28;20214;-87
2022/11/03 07:39:50;;;;;;;97.10;47.85;;;307.70;2304.00;;;;;;4975812;28;20055;-86
2022/11/03 07:42:21;;;;;;;104.18;47.22;;;307.80;2304.00;;;;;;4975635;28;20046;-86
2022/11/03 07:44:47;;;;;;;93.78;45.38;;;307.80;2304.00;;;;;;4975577;28;20062;-85
2022/11/03 07:47:18;;;;;;;100.20;46.72;;;307.90;2304.00;;;;;;4975638;28;20118;-87
2022/11/03 07:49:45;;;;;;;93.78;43.75;;;307.80;2304.00;;;;;;4975764;28;20034;-86
2022/11/03 07:52:15;;;;;;;87.90;44.30;;;307.70;2304.00;;;;;;4976656;28;20041;-85
2022/11/03 07:54:41;;;;;;;95.57;45.00;;;307.90;2304.00;;;;;;4976555;28;20027;-86
2022/11/03 07:57:21;;;;;;;91.60;43.30;;;307.90;2304.00;;;;;;4975439;28;20023;-84
2022/11/03 07:59:50;;;;;;;83.43;42.13;;;307.90;2304.00;;;;;;4974804;28;20026;-82
2022/11/03 08:02:22;;;;;;;93.68;42.20;;;308.00;2304.00;;;;;;4975205;28;20388;-83
2022/11/03 08:04:48;;;;;;;88.65;43.47;;;308.00;2304.00;;;;;;4975154;28;20483;-84
2022/11/03 08:07:14;;;;;;;102.50;49.83;;;308.00;2304.00;;;;;;4975240;28;20090;-81
2022/11/03 08:09:40;;;;;;;99.75;46.00;;;307.80;2304.00;;;;;;4974546;28;20054;-81
2022/11/03 08:12:06;;;;;;;102.32;45.63;;;;;;;;;;4974320;28;20030;-80
2022/11/03 08:14:32;;;;;;;99.78;46.15;;;;;;;;;;4984191;28;20031;-81
2022/11/03 08:16:58;;;;;;;98.30;46.97;;;;;;;;;;4995231;28;20053;-80
2022/11/03 08:19:24;;;;;;;96.20;46.00;;;;;;;;;;4993219;28;20538;-80
2022/11/03 08:21:51;;;;;;;98.43;46.42;;;;;;;;;;4993782;28;20058;-81
2022/11/03 08:24:17;;;;;;;89.63;44.13;;;;;;;;;;4993734;28;20109;-78
2022/11/03 08:26:43;;;;;;;92.25;43.88;;;;;;;;;;4992873;28;20430;-80
2022/11/03 08:29:09;;;;;;;94.35;44.58;;;;;;;;;;4992866;28;20113;-82
2022/11/03 08:31:35;;;;;;;95.03;48.28;;;;;;;;;;4991493;28;20066;-82
2022/11/03 08:34:01;;;;;;;90.32;46.28;;;;;;;;;;4990935;28;20019;-81
2022/11/03 08:36:27;;;;;;;90.60;47.30;;;;;;;;;;4992024;28;20030;-81
2022/11/03 08:38:53;;;;;;;90.22;46.00;;;332.90;2329.60;;;;;;4987967;28;20150;-81
2022/11/03 08:41:18;;;;;;;97.35;46.10;;;332.80;2329.60;;;;;;5004448;28;20030;-80
2022/11/03 08:43:44;;;;;;;92.43;45.85;;;332.90;2329.60;;;;;;4993923;28;20026;-82
2022/11/03 08:46:10;;;;;;;93.97;47.40;;;332.90;2329.60;;;;;;4993432;28;20384;-82
2022/11/03 08:48:36;;;;;;;92.07;46.28;;;308.10;2304.00;;;;;;4992704;28;20029;-82
2022/11/03 08:51:01;;;;;;;88.53;49.70;;;308.10;2304.00;;;;;;4993086;28;20473;-82
2022/11/03 08:53:27;;;;;;;99.03;49.10;;;308.00;2304.00;;;;;;4992628;28;20092;-83
2022/11/03 08:55:53;;;;;;;97.55;50.17;;;308.10;2304.00;;;;;;4993134;28;20026;-83
2022/11/03 08:58:20;;;;;;;92.82;51.08;;;332.80;2329.60;;;;;;4993299;28;20026;-83
2022/11/03 09:00:46;;;;;;;87.65;46.35;;;332.90;2329.60;;;;;;4992603;28;20357;-80
2022/11/03 09:03:12;;;;;;;121.95;65.60;;;332.90;2329.60;;;;;;4994708;28;20468;-84
2022/11/03 09:05:39;;;;;;;94.72;49.03;;;333.00;2329.60;;;;;;4993560;28;20089;-83
2022/11/03 09:08:04;;;;;;;92.45;51.50;;;332.80;2329.60;;;;;;4993550;28;20034;-84
2022/11/03 09:10:30;;;;;;;87.05;48.85;;;332.80;2329.60;;;;;;4993386;28;20031;-81
2022/11/03 09:12:56;;;;;;;90.35;49.90;;;332.80;2329.60;;;;;;4993381;28;20476;-83
2022/11/03 09:15:22;;;;;;;99.90;49.55;;;332.90;2329.60;;;;;;4994771;28;20038;-82
2022/11/03 09:17:47;;;;;;;93.38;48.50;;;332.90;2329.60;;;;;;5001253;28;20027;-82
2022/11/03 09:20:13;;;;;;;94.28;52.42;;;333.00;2329.60;;;;;;5004328;28;20380;-81
2022/11/03 09:22:39;;;;;;;96.25;49.97;;;333.10;2329.60;;;;;;4996537;28;20026;-82
2022/11/03 09:25:05;;;;;;;97.97;53.08;;;332.90;2329.60;;;;;;4992780;28;20045;-83
2022/11/03 09:27:31;;;;;;;97.82;53.58;;;308.10;2304.00;;;;;;4993045;28;20030;-82
2022/11/03 09:29:57;;;;;;;112.93;59.55;;;308.00;2304.00;;;;;;4993675;28;20038;-81
2022/11/03 09:32:23;;;;;;;116.40;59.47;;;308.00;2304.00;;;;;;4991641;28;20041;-81
2022/11/03 09:34:49;;;;;;;113.10;59.03;;;308.10;2304.00;;;;;;4992080;28;20034;-83
2022/11/03 09:37:15;;;;;;;117.10;61.08;;;332.90;2329.60;;;;;;4993648;28;20050;-82
2022/11/03 09:39:42;;;;;;;117.43;60.67;;;332.90;2329.60;;;;;;4992189;28;20523;-81
2022/11/03 09:42:09;;;;;;;106.10;59.42;;;332.90;2329.60;;;;;;4992584;28;20468;-82
2022/11/03 09:44:35;;;;;;;105.53;55.88;;;333.00;2329.60;;;;;;4992733;28;20096;-82
2022/11/03 09:47:02;;;;;;;116.82;61.75;;;333.00;2329.60;;;;;;4992852;28;20455;-82
2022/11/03 09:49:31;;;;;;;116.82;62.80;;;332.90;2329.60;;;;;;4992603;28;20034;-82
2022/11/03 09:51:57;;;;;;;107.22;56.60;;;332.90;2329.60;;;;;;4992681;28;20077;-82
2022/11/03 09:54:23;;;;;;;117.03;65.05;;;332.80;2329.60;;;;;;4993096;28;20054;-82
2022/11/03 09:56:49;;;;;;;106.50;56.60;;;332.80;2329.60;;;;;;4993813;28;20101;-83
2022/11/03 09:59:20;;;;;;;107.18;55.22;;;333.00;2329.60;;;;;;4992852;28;20030;-82
2022/11/03 10:01:48;;;;;;;104.22;53.80;;;333.40;2329.60;;;;;;4992856;28;20045;-83
2022/11/03 10:04:17;;;;;;;105.78;57.00;;;333.00;2329.60;;;;;;4992454;28;20026;-80
2022/11/03 10:06:43;;;;;;;105.80;57.17;;;333.10;2329.60;;;;;;4992780;28;20022;-81
2022/11/03 10:09:16;;;;;;;111.43;56.70;;;333.20;2329.60;;;;;;4992746;28;20041;-81
2022/11/03 10:11:44;;;;;;;95.25;51.08;;;333.30;2329.60;;;;;;4992578;28;20034;-80
2022/11/03 10:14:13;;;;;;;96.65;51.13;;;333.30;2329.60;;;;;;4992836;28;20035;-81
2022/11/03 10:16:41;;;;;;;103.45;50.50;;;333.40;2329.60;;;;;;4992401;28;20088;-83
2022/11/03 10:19:13;;;;;;;107.38;52.78;;;333.30;2329.60;;;;;;4993865;28;20022;-82
2022/11/03 10:21:41;;;;;;;110.17;50.17;;;333.20;2329.60;;;;;;4992785;28;20088;-82
2022/11/03 10:24:13;;;;;;;96.82;49.63;;;333.40;2329.60;;;;;;4992635;28;20042;-82
2022/11/03 10:26:47;;;;;;;105.70;50.88;;;333.60;2329.60;;;;;;4992375;28;20042;-82
2022/11/03 10:29:22;;;;;;;93.35;46.88;;;358.40;2329.60;;;;;;4995042;28;20038;-83
2022/11/03 10:31:51;;;;;;;97.90;50.80;;;358.40;2329.60;;;;;;4995760;28;20042;-82
2022/11/03 10:34:26;;;;;;;86.35;47.40;;;;;;;;;;4996903;28;20035;-84
2022/11/03 10:37:25;;;;;;;81.68;47.58;;;358.50;2329.60;;;;;;4995549;28;20050;-83
2022/11/03 10:39:52;;;;;;;94.95;52.05;;;;;;;;;;4995249;28;20050;-83
2022/11/03 10:42:19;;;;;;;101.20;54.30;;;358.60;2329.60;;;;;;4995600;28;20018;-84
2022/11/03 10:44:45;;;;;;;99.05;55.13;;;358.60;2329.60;;;;;;4995753;28;20022;-84
2022/11/03 10:47:33;;;;;;;100.38;53.92;;;358.70;2329.60;;;;;;4997145;28;20029;-82
2022/11/03 10:50:01;;;;;;;96.75;54.95;;;358.80;2329.60;;;;;;4995734;28;20030;-84
2022/11/03 10:52:30;;;;;;;103.85;56.05;;;358.80;2329.60;;;;;;4995220;28;20045;-82
2022/11/03 10:54:58;;;;;;;100.32;58.15;;;358.80;2329.60;;;;;;4995835;28;20125;-82
2022/11/03 10:57:25;;;;;;;103.70;56.80;;;358.80;2329.60;;;;;;4996769;28;20034;-83
2022/11/03 10:59:53;;;;;;;104.32;59.22;;;358.80;2329.60;;;;;;4994985;28;20037;-83
2022/11/03 11:02:30;;;;;;;97.53;56.22;;;358.90;2329.60;;;;;;4995294;28;20073;-82
2022/11/03 11:05:01;;;;;;;101.95;55.92;;;359.10;2329.60;;;;;;4995531;28;20380;-82
2022/11/03 11:07:40;;;;;;;109.18;58.80;;;359.10;2329.60;;;;;;4995044;28;20026;-81
2022/11/03 11:10:17;;;;;;;103.22;57.20;;;;;;;;;;4995241;28;20356;-82
2022/11/03 11:13:02;;;;;;;97.05;53.95;;;;;;;;;;4995131;28;20030;-82
2022/11/03 11:15:38;;;;;;;95.10;53.80;;;384.70;2329.60;;;;;;4995878;28;20050;-81
2022/11/03 11:18:04;;;;;;;101.35;58.33;;;;;;;;;;4994859;28;20055;-82
2022/11/03 11:20:31;;;;;;;100.88;53.70;;;;;;;;;;4994954;28;20022;-81
2022/11/03 11:23:17;;;;;;;93.63;52.85;;;;;;;;;;4995073;28;20037;-80
2022/11/03 11:26:02;;;;;;;100.60;53.67;;;;;;;;;;4995799;28;20018;-82
2022/11/03 11:28:28;;;;;;;99.88;53.50;;;;;;;;;;4994759;28;20026;-82
2022/11/03 11:31:18;;;;;;;96.43;56.13;;;;;;;;;;4995149;28;20034;-82
2022/11/03 11:33:44;;;;;;;102.35;56.33;;;;;;;;;;4994929;28;20061;-82
2022/11/03 11:36:19;;;;;;;104.10;56.15;;;;;;;;;;4993614;28;20042;-82
2022/11/03 11:38:51;;;;;;;97.97;53.15;;;;;;;;;;4975052;28;20046;-82
2022/11/03 11:41:17;;;;;;;92.25;53.30;;;436.10;2355.20;;;;;;4973593;28;20027;-82
2022/11/03 11:43:43;;;;;;;92.72;55.35;;;460.80;2380.80;;;;;;4978121;28;20026;-81
2022/11/03 11:46:27;;;;;;;81.82;49.15;;;;;;;;;;4985244;28;20038;-81
2022/11/03 11:48:56;;;;;;;90.78;50.08;;;;;;;;;;4975219;28;20031;-81
2022/11/03 11:51:23;;;;;;;83.45;49.92;;;;;;;;;;4974272;28;20151;-80
2022/11/03 11:53:50;;;;;;;87.30;50.97;;;460.80;2380.80;;;;;;4975625;28;20104;-81
2022/11/03 11:56:17;;;;;;;87.00;50.72;;;461.10;2380.80;;;;;;4975173;28;20034;-81
2022/11/03 11:58:43;;;;;;;79.80;48.90;;;;;;;;;;4983407;28;20030;-81
2022/11/03 12:01:28;;;;;;;84.13;50.80;;;;;;;;;;4994276;28;20033;-83
2022/11/03 12:04:01;;;;;;;86.70;50.33;;;;;;;;;;4992670;28;20129;-80
2022/11/03 12:06:35;;;;;;;87.47;50.13;;;461.70;2380.80;;;;;;4994059;28;20022;-80
2022/11/03 12:09:13;;;;;;;81.47;47.70;;;461.60;2380.80;;;;;;4995133;28;20033;-81
2022/11/03 12:11:50;;;;;;;79.18;48.90;;;461.70;2380.80;;;;;;4993874;28;20070;-82
2022/11/03 12:14:29;;;;;;;84.55;49.17;;;461.70;2380.80;;;;;;4994229;28;20026;-82
2022/11/03 12:16:56;;;;;;;88.18;50.10;;;486.40;2380.80;;;;;;4993739;28;20029;-83
2022/11/03 12:19:47;;;;;;;86.05;51.55;;;486.80;2380.80;;;;;;4995206;28;20022;-82
2022/11/03 12:22:22;;;;;;;82.13;49.10;;;486.70;2380.80;;;;;;4995226;28;20022;-81
2022/11/03 12:24:48;;;;;;;75.95;47.83;;;;;;;;;;4996689;28;20392;-82
2022/11/03 12:27:40;;;;;;;81.00;49.08;;;;;;;;;;5000210;28;20432;-79
2022/11/03 12:30:17;;;;;;;72.63;44.05;;;487.20;2380.80;;;;;;5009057;28;20022;-81
2022/11/03 12:32:44;;;;;;;74.70;47.53;;;;;;;;;;4996658;28;20542;-80
2022/11/03 12:35:12;;;;;;;85.30;49.38;;;;;;;;;;4994523;28;20468;-83
2022/11/03 12:37:38;;;;;;;82.88;51.30;;;;;;;;;;4993768;28;20057;-81
2022/11/03 12:40:05;;;;;;;77.60;50.28;;;;;;;;;;4993543;28;20118;-81
2022/11/03 12:42:31;;;;;;;77.28;47.13;;;;;;;;;;4995114;28;20042;-83
2022/11/03 12:44:57;;;;;;;74.15;46.45;;;;;;;;;;4993297;28;20031;-81
2022/11/03 12:47:23;;;;;;;84.82;49.22;;;512.10;2380.80;;;;;;4993634;28;20364;-80